Time;durP1;ratioP1;P1;durP2;ratioP2;P2;SDS_P1;SDS_P2;PMS_P1;PMS_P2;Temp;Humidity;BMP_temperature;BMP_pressure;BME280_temperature;BME280_humidity;BME280_pressure;Samples;Min_cycle;Max_cycle;Signal;HPM_P1;HPM_P2
2021/09/05 00:01:39;;;;;;;5.35;4.85;;;;;;;12.58;92.53;96382.38;5226457;56;20894;-77
2021/09/05 00:06:41;;;;;;;5.25;4.75;;;;;;;12.75;91.67;96383.47;5227165;56;20161;-77
2021/09/05 00:11:44;;;;;;;5.53;4.32;;;;;;;12.54;91.89;96389.34;5237570;56;20117;-76
2021/09/05 00:16:46;;;;;;;6.47;5.47;;;;;;;12.41;92.10;96386.81;5236540;56;20697;-76
2021/09/05 00:21:49;;;;;;;5.85;4.95;;;;;;;12.57;91.13;96386.41;5235906;56;20122;-76
2021/09/05 00:26:51;;;;;;;7.80;5.50;;;;;;;12.40;91.49;96388.03;5235333;56;20110;-77
2021/09/05 00:31:54;;;;;;;6.13;5.03;;;;;;;12.29;92.28;96373.19;5226426;56;20131;-74
2021/09/05 00:36:56;;;;;;;6.95;5.35;;;;;;;12.21;92.44;96375.56;5227171;56;20197;-75
2021/09/05 00:41:59;;;;;;;7.38;5.28;;;;;;;12.14;92.13;96379.44;5231692;56;20578;-78
2021/09/05 00:47:01;;;;;;;6.20;4.97;;;;;;;12.05;91.92;96387.78;5228834;56;20114;-78
2021/09/05 00:52:05;;;;;;;9.30;4.90;;;;;;;12.02;91.93;96387.97;5230947;56;20083;-77
2021/09/05 00:57:15;;;;;;;6.20;5.03;;;;;;;12.05;91.88;96390.56;5229022;56;20680;-76
2021/09/05 01:02:17;;;;;;;5.90;5.28;;;;;;;11.96;92.06;96392.63;5221291;56;20139;-77
2021/09/05 01:07:20;;;;;;;5.85;5.15;;;;;;;11.89;91.54;96390.22;5228159;56;20126;-76
2021/09/05 01:12:22;;;;;;;10.02;5.07;;;;;;;11.87;92.39;96392.69;5228253;56;20144;-75
2021/09/05 01:17:28;;;;;;;10.18;5.05;;;;;;;11.88;92.66;96394.97;5226537;56;20179;-75
2021/09/05 01:22:30;;;;;;;6.10;4.43;;;;;;;11.80;91.78;96399.34;5226393;56;20122;-75
2021/09/05 01:27:32;;;;;;;5.78;4.65;;;;;;;11.74;91.94;96395.66;5227113;56;20122;-77
2021/09/05 01:32:35;;;;;;;6.53;5.05;;;;;;;11.71;92.82;96412.44;5226677;56;20136;-76
2021/09/05 01:37:37;;;;;;;6.10;5.07;;;;;;;11.67;92.65;96409.81;5226253;56;20144;-77
2021/09/05 01:42:40;;;;;;;11.02;5.72;;;;;;;11.63;92.85;96413.97;5223530;56;20225;-78
2021/09/05 01:47:42;;;;;;;9.95;5.25;;;;;;;11.60;92.40;96412.16;5223728;56;20591;-78
2021/09/05 01:52:45;;;;;;;7.43;5.10;;;;;;;11.65;91.96;96414.25;5223027;56;20583;-75
2021/09/05 01:57:47;;;;;;;6.57;5.00;;;;;;;11.72;92.50;96413.94;5223589;56;20603;-77
2021/09/05 02:02:51;;;;;;;5.03;4.20;;;;;;;11.57;92.31;96418.59;5227395;56;20118;-76
2021/09/05 02:07:54;;;;;;;6.00;4.30;;;;;;;11.50;92.16;96426.00;5227193;56;20122;-78
2021/09/05 02:12:56;;;;;;;4.78;4.25;;;;;;;11.46;92.21;96419.09;5227616;56;20110;-77
2021/09/05 02:17:58;;;;;;;4.88;4.38;;;;;;;11.37;92.43;96424.66;5227114;56;20140;-76
2021/09/05 02:23:01;;;;;;;4.70;4.20;;;;;;;11.49;92.38;96429.22;5242823;56;20087;-76
2021/09/05 02:28:03;;;;;;;4.90;4.40;;;;;;;11.35;92.55;96429.91;5239605;56;20124;-76
2021/09/05 02:33:06;;;;;;;4.50;3.90;;;;;;;11.28;92.54;96431.00;5238705;56;20113;-75
2021/09/05 02:38:09;;;;;;;4.65;3.90;;;;;;;11.35;92.30;96436.16;5237154;56;20702;-76
2021/09/05 02:43:11;;;;;;;4.65;4.18;;;;;;;11.23;92.40;96433.59;5237629;56;20105;-76
2021/09/05 02:48:14;;;;;;;5.22;4.28;;;;;;;11.15;92.12;96433.13;5234608;56;20114;-77
2021/09/05 02:53:16;;;;;;;8.98;5.00;;;;;;;11.07;92.71;96440.22;5223031;56;20699;-78
2021/09/05 02:58:19;;;;;;;6.07;4.38;;;;;;;11.20;92.54;96440.81;5230790;56;20126;-76
2021/09/05 03:03:21;;;;;;;7.63;4.60;;;;;;;11.09;92.58;96435.00;5230673;56;20145;-77
2021/09/05 03:08:24;;;;;;;6.22;4.60;;;;;;;11.01;92.30;96436.56;5236826;56;20113;-75
2021/09/05 03:13:26;;;;;;;6.90;5.00;;;;;;;10.93;92.75;96434.53;5236648;56;20100;-75
2021/09/05 03:18:30;;;;;;;7.88;5.03;;;;;;;10.88;92.44;96440.72;5227336;56;20208;-75
2021/09/05 03:23:32;;;;;;;6.07;5.20;;;;;;;10.88;92.34;96443.47;5219527;56;20563;-76
2021/09/05 03:28:35;;;;;;;5.40;4.60;;;;;;;10.85;91.91;96445.16;5235090;56;20144;-76
2021/09/05 03:33:37;;;;;;;5.38;4.82;;;;;;;10.76;92.23;96450.69;5229336;56;20122;-76
2021/09/05 03:38:39;;;;;;;5.75;4.85;;;;;;;10.82;92.76;96454.38;5238345;56;20122;-76
2021/09/05 03:43:42;;;;;;;4.43;3.97;;;;;;;10.70;92.55;96456.03;5238773;56;20123;-77
2021/09/05 03:48:44;;;;;;;4.60;4.20;;;;;;;10.65;92.69;96461.44;5229466;56;20690;-76
2021/09/05 03:53:47;;;;;;;6.50;4.90;;;;;;;10.69;92.23;96462.81;5228374;56;20101;-76
2021/09/05 03:58:50;;;;;;;4.85;4.38;;;;;;;10.65;91.87;96453.13;5238443;56;20144;-76
2021/09/05 04:03:52;;;;;;;5.50;4.90;;;;;;;10.57;91.69;96463.72;5238415;56;20282;-76
2021/09/05 04:08:56;;;;;;;6.38;4.60;;;;;;;10.47;92.46;96456.63;5236946;56;20118;-76
2021/09/05 04:13:58;;;;;;;5.47;4.65;;;;;;;10.43;92.59;96455.22;5239778;56;20122;-75
2021/09/05 04:19:00;;;;;;;6.65;4.65;;;;;;;10.51;92.73;96462.03;5239860;56;20130;-76
2021/09/05 04:24:03;;;;;;;10.02;5.07;;;;;;;10.65;92.79;96455.91;5239182;56;20131;-75
2021/09/05 04:29:05;;;;;;;6.20;4.95;;;;;;;10.69;92.38;96465.56;5238092;56;20113;-76
2021/09/05 04:34:08;;;;;;;6.65;5.07;;;;;;;10.50;92.56;96466.75;5230051;56;20614;-75
2021/09/05 04:39:11;;;;;;;6.88;4.90;;;;;;;10.40;92.67;96472.75;5238287;56;20118;-76
2021/09/05 04:44:13;;;;;;;7.82;4.95;;;;;;;10.46;92.37;96471.69;5239536;56;20118;-77
2021/09/05 04:49:15;;;;;;;4.78;4.35;;;;;;;10.48;92.02;96476.75;5242835;56;20117;-77
2021/09/05 04:54:18;;;;;;;11.65;4.30;;;;;;;10.51;92.54;96481.34;5243121;56;20122;-77
2021/09/05 04:59:20;;;;;;;5.15;4.50;;;;;;;10.64;92.70;96496.56;5242663;56;20135;-77
2021/09/05 05:04:22;;;;;;;5.45;4.47;;;;;;;10.60;92.24;96495.19;5240411;56;20096;-76
2021/09/05 05:09:25;;;;;;;5.45;4.90;;;;;;;10.58;91.76;96512.22;5238583;56;20198;-76
2021/09/05 05:14:28;;;;;;;7.90;5.00;;;;;;;10.65;92.25;96516.69;5237244;56;20139;-76
2021/09/05 05:19:30;;;;;;;6.88;4.70;;;;;;;10.80;92.39;96518.41;5228704;56;20148;-76
2021/09/05 05:24:32;;;;;;;8.00;4.97;;;;;;;11.04;92.21;96515.03;5236774;56;20118;-76
2021/09/05 05:29:35;;;;;;;5.53;4.80;;;;;;;11.24;91.55;96524.41;5237424;56;20263;-74
2021/09/05 05:34:37;;;;;;;6.45;4.68;;;;;;;11.35;91.83;96518.44;5236526;56;20126;-77
2021/09/05 05:39:40;;;;;;;5.55;4.30;;;;;;;11.49;91.71;96528.84;5226319;56;20118;-76
2021/09/05 05:44:42;;;;;;;6.18;5.13;;;;;;;11.64;91.47;96527.00;5234334;56;20109;-76
2021/09/05 05:49:46;;;;;;;6.10;4.88;;;;;;;11.80;91.43;96526.69;5230868;56;20125;-75
2021/09/05 05:54:48;;;;;;;5.95;4.60;;;;;;;11.89;91.63;96534.19;5240204;56;20136;-76
2021/09/05 05:59:52;;;;;;;6.55;4.57;;;;;;;12.07;91.42;96539.69;5240879;56;20127;-76
2021/09/05 06:04:54;;;;;;;8.45;5.47;;;;;;;12.21;92.88;96539.03;5241473;56;20732;-76
2021/09/05 06:09:57;;;;;;;8.00;5.35;;;;;;;12.52;91.77;96535.94;5239763;56;20169;-76
2021/09/05 06:14:59;;;;;;;9.32;6.13;;;;;;;12.90;91.73;96531.25;5238935;56;20122;-76
2021/09/05 06:20:07;;;;;;;8.85;6.05;;;;;;;13.11;91.43;96548.09;5234383;56;20109;-77
2021/09/05 06:25:10;;;;;;;9.70;6.50;;;;;;;13.32;90.88;96538.69;5233569;56;20114;-77
2021/09/05 06:30:12;;;;;;;6.63;5.90;;;;;;;13.61;90.56;96558.94;5228347;56;20141;-76
2021/09/05 06:35:15;;;;;;;8.85;6.95;;;;;;;13.79;90.39;96558.03;5228364;56;20206;-76
2021/09/05 06:40:17;;;;;;;10.40;6.63;;;;;;;14.08;90.82;96558.03;5228867;56;20123;-78
2021/09/05 06:45:20;;;;;;;8.70;6.13;;;;;;;14.45;90.01;96565.97;5232001;56;20123;-76
2021/09/05 06:50:22;;;;;;;8.40;6.32;;;;;;;14.75;88.85;96565.44;5230908;56;20127;-76
2021/09/05 06:55:25;;;;;;;8.27;6.40;;;;;;;14.95;88.40;96564.69;5229064;56;20127;-76
2021/09/05 07:00:27;;;;;;;11.02;7.53;;;;;;;15.09;88.38;96570.22;5228200;56;20126;-76
2021/09/05 07:05:30;;;;;;;8.23;6.72;;;;;;;15.27;87.11;96576.75;5230462;56;20616;-75
2021/09/05 07:10:32;;;;;;;10.43;7.88;;;;;;;15.60;86.64;96572.38;5239732;56;20104;-76
2021/09/05 07:15:35;;;;;;;9.43;7.15;;;;;;;15.96;85.13;96584.16;5241782;56;20114;-76
2021/09/05 07:20:38;;;;;;;10.60;8.30;;;;;;;16.12;84.76;96578.75;5238517;56;20122;-75
2021/09/05 07:25:40;;;;;;;9.25;7.30;;;;;;;16.31;82.02;96579.94;5237867;56;20118;-76
2021/09/05 07:30:42;;;;;;;9.18;7.15;;;;;;;16.61;81.96;96590.84;5230984;56;20123;-76
2021/09/05 07:35:45;;;;;;;10.77;8.27;;;;;;;16.82;81.10;96595.84;5231538;56;20113;-76
2021/09/05 07:40:48;;;;;;;10.95;6.47;;;;;;;17.10;80.46;96594.00;5242020;56;20675;-76
2021/09/05 07:45:50;;;;;;;8.55;6.68;;;;;;;17.28;78.11;96595.59;5245260;56;20114;-76
2021/09/05 07:50:53;;;;;;;9.13;6.82;;;;;;;17.62;75.66;96599.34;5236704;56;20156;-76
2021/09/05 07:55:55;;;;;;;10.55;6.78;;;;;;;17.85;76.29;96600.94;5244003;56;20132;-76
2021/09/05 08:00:57;;;;;;;9.32;6.70;;;;;;;18.00;74.20;96600.75;5243421;56;20118;-76
2021/09/05 08:06:00;;;;;;;8.68;6.90;;;;;;;18.22;74.59;96606.38;5233827;56;20240;-77
2021/09/05 08:11:04;;;;;;;7.30;6.45;;;;;;;18.55;72.50;96606.44;5228725;56;20136;-76
2021/09/05 08:16:06;;;;;;;7.97;6.35;;;;;;;18.85;69.37;96615.09;5228629;56;20207;-76
2021/09/05 08:21:11;;;;;;;7.57;6.18;;;;;;;19.13;68.39;96613.03;5230154;56;20193;-76
2021/09/05 08:26:13;;;;;;;7.72;6.70;;;;;;;19.21;66.38;96612.00;5226898;56;20140;-77
2021/09/05 08:31:16;;;;;;;11.82;7.10;;;;;;;19.55;66.55;96611.94;5231582;56;20127;-75
2021/09/05 08:36:18;;;;;;;8.40;7.13;;;;;;;20.39;63.00;96621.47;5232579;56;20118;-77
2021/09/05 08:41:24;;;;;;;7.70;6.82;;;;;;;21.35;62.13;96618.13;5231695;56;20214;-76
2021/09/05 08:46:26;;;;;;;9.32;6.03;;;;;;;22.63;55.33;96617.28;5232237;56;20122;-76
2021/09/05 08:51:30;;;;;;;9.15;6.05;;;;;;;22.42;59.71;96621.94;5231593;56;20157;-76
2021/09/05 08:56:33;;;;;;;7.57;5.78;;;;;;;23.16;54.63;96624.59;5229530;56;20239;-76
2021/09/05 09:01:35;;;;;;;7.22;5.63;;;;;;;22.94;55.46;96632.66;5231451;56;20126;-76
2021/09/05 09:06:40;;;;;;;7.68;5.95;;;;;;;23.82;56.09;96633.91;5231228;56;20210;-77
2021/09/05 09:11:48;;;;;;;6.88;5.95;;;;;;;23.46;52.76;96627.94;5228775;56;20217;-76
2021/09/05 09:16:51;;;;;;;6.85;5.93;;;;;;;23.91;52.03;96629.88;5226280;56;20234;-77
2021/09/05 09:21:55;;;;;;;6.78;5.40;;;;;;;24.03;56.26;96637.59;5227700;56;20879;-76
2021/09/05 09:27:00;;;;;;;6.32;5.65;;;;;;;23.93;53.57;96633.69;5227334;56;20122;-75
2021/09/05 09:32:23;;;;;;;6.15;5.30;;;;;;;24.15;53.20;96627.59;5227808;56;20105;-77
2021/09/05 09:37:25;;;;;;;6.15;5.47;;;;;;;25.28;50.34;96619.56;5220924;56;20136;-77
2021/09/05 09:42:37;;;;;;;5.82;5.22;;;;;;;24.88;52.35;96629.53;5223795;56;20122;-77
2021/09/05 09:47:49;;;;;;;7.85;5.45;;;;;;;25.02;49.49;96625.34;5213487;56;20591;-77
2021/09/05 09:52:53;;;;;;;6.95;5.97;;;;;;;25.86;50.14;96626.75;5226165;56;20127;-77
2021/09/05 09:57:56;;;;;;;6.63;5.60;;;;;;;25.28;51.97;96630.09;5222825;56;20122;-78
2021/09/05 10:03:03;;;;;;;8.10;5.85;;;;;;;26.17;47.54;96631.28;5221374;56;20587;-76
2021/09/05 10:08:07;;;;;;;8.60;5.68;;;;;;;25.87;49.79;96628.28;5226022;56;20206;-77
2021/09/05 10:13:10;;;;;;;5.95;4.78;;;;;;;25.96;48.12;96628.50;5221712;56;20650;-77
2021/09/05 10:18:13;;;;;;;5.13;4.63;;;;;;;25.41;47.71;96622.28;5220170;56;20127;-77
2021/09/05 10:23:28;;;;;;;6.78;4.70;;;;;;;26.12;48.70;96618.06;5224168;56;20215;-78
2021/09/05 10:28:32;;;;;;;4.78;4.20;;;;;;;26.49;45.24;96613.81;5222133;56;20588;-77
2021/09/05 10:33:39;;;;;;;5.35;4.47;;;;;;;26.59;47.43;96614.81;5224171;56;20122;-78
2021/09/05 10:38:43;;;;;;;4.53;4.13;;;;;;;26.18;45.73;96605.25;5227943;56;20867;-78
2021/09/05 10:43:48;;;;;;;4.60;4.20;;;;;;;27.02;45.35;96614.72;5226417;56;20645;-77
2021/09/05 10:48:54;;;;;;;4.28;3.88;;;;;;;27.59;43.07;96603.78;5226473;56;20655;-77
2021/09/05 10:54:03;;;;;;;5.65;4.85;;;;;;;27.30;47.02;96603.19;5228887;56;20581;-77
2021/09/05 10:59:08;;;;;;;5.55;4.18;;;;;;;28.16;42.29;96607.59;5227630;56;20595;-77
2021/09/05 11:04:10;;;;;;;4.40;4.00;;;;;;;27.67;42.92;96605.28;5219276;56;20196;-76
2021/09/05 11:09:19;;;;;;;4.50;4.10;;;;;;;27.08;40.30;96614.53;5223730;56;20122;-75
2021/09/05 11:14:48;;;;;;;6.57;4.00;;;;;;;27.41;41.59;96605.66;5225793;56;20121;-78
2021/09/05 11:20:17;;;;;;;5.05;4.60;;;;;;;27.42;39.57;96603.59;5221053;56;20140;-76
2021/09/05 11:25:28;;;;;;;8.30;4.63;;;;;;;27.66;38.80;96600.13;5233965;56;20145;-76
2021/09/05 11:30:33;;;;;;;7.55;3.88;;;;;;;27.48;42.02;96595.63;5226401;56;20582;-78
2021/09/05 11:35:39;;;;;;;5.10;4.18;;;;;;;26.92;37.51;96586.16;5227868;56;20595;-78
2021/09/05 11:40:52;;;;;;;3.67;3.38;;;;;;;27.00;37.93;96603.19;5222411;56;20140;-75
2021/09/05 11:45:55;;;;;;;4.03;3.53;;;;;;;26.86;40.31;96616.03;5226543;56;20148;-77
2021/09/05 11:51:02;;;;;;;8.50;3.85;;;;;;;27.38;39.55;96608.91;5227250;56;20109;-75
2021/09/05 11:56:05;;;;;;;5.18;3.40;;;;;;;26.86;40.76;96605.44;5220591;56;20714;-73
2021/09/05 12:01:07;;;;;;;4.22;3.78;;;;;;;27.21;37.23;96611.50;5214324;56;20131;-77
2021/09/05 12:06:10;;;;;;;3.55;3.20;;;;;;;26.58;37.59;96621.78;5219828;56;20153;-76
2021/09/05 12:11:13;;;;;;;3.60;3.33;;;;;;;27.14;39.07;96615.13;5222636;56;20122;-76
2021/09/05 12:16:28;;;;;;;4.93;3.20;;;;;;;27.09;37.68;96619.66;5215258;56;20715;-76
2021/09/05 12:21:34;;;;;;;3.05;2.80;;;;;;;27.36;34.29;96623.66;5226493;56;20131;-78
2021/09/05 12:26:37;;;;;;;3.45;3.15;;;;;;;27.32;36.27;96606.22;5217644;56;20118;-74
2021/09/05 12:31:42;;;;;;;3.47;3.17;;;;;;;27.02;35.93;96611.91;5220994;56;20113;-77
2021/09/05 12:36:55;;;;;;;3.53;3.22;;;;;;;27.34;38.06;96614.91;5223836;56;20118;-78
2021/09/05 12:42:11;;;;;;;4.18;3.50;;;;;;;27.39;39.18;96613.22;5220065;56;20228;-78
2021/09/05 12:47:25;;;;;;;4.25;3.20;;;;;;;27.60;36.99;96613.78;5225647;56;20109;-78
2021/09/05 12:52:30;;;;;;;3.90;3.42;;;;;;;27.32;36.58;96609.06;5208984;56;20328;-77
2021/09/05 12:57:32;;;;;;;3.30;3.00;;;;;;;26.79;32.17;96616.78;5214341;56;20113;-76
2021/09/05 13:02:35;;;;;;;6.22;3.58;;;;;;;27.17;33.65;96623.25;5224925;56;20209;-77
2021/09/05 13:07:38;;;;;;;3.83;3.53;;;;;;;27.09;36.36;96627.41;5225298;56;20649;-76
2021/09/05 13:12:40;;;;;;;3.80;3.38;;;;;;;27.73;37.16;96621.34;5219765;56;20118;-76
2021/09/05 13:17:43;;;;;;;3.20;2.90;;;;;;;27.55;34.12;96612.66;5211548;56;20114;-77
2021/09/05 13:22:45;;;;;;;4.25;3.65;;;;;;;27.41;35.48;96617.03;5223774;56;20126;-77
2021/09/05 13:27:48;;;;;;;3.53;3.22;;;;;;;26.98;35.56;96617.19;5225533;56;20119;-77
2021/09/05 13:32:50;;;;;;;4.43;3.67;;;;;;;26.76;36.70;96601.66;5219170;56;20131;-77
2021/09/05 13:37:53;;;;;;;4.10;3.13;;;;;;;27.21;34.23;96594.47;5228574;56;20127;-77
2021/09/05 13:42:55;;;;;;;3.92;3.53;;;;;;;27.85;35.69;96599.72;5223995;56;20130;-77
2021/09/05 13:47:58;;;;;;;3.47;3.17;;;;;;;26.55;34.78;96609.50;5228974;56;20126;-76
2021/09/05 13:53:00;;;;;;;3.90;3.45;;;;;;;26.92;34.99;96599.59;5228502;56;20132;-77
2021/09/05 13:58:03;;;;;;;3.60;3.25;;;;;;;27.23;36.25;96592.59;5230821;56;20127;-79
2021/09/05 14:03:05;;;;;;;3.92;3.22;;;;;;;26.73;32.37;96594.22;5230552;56;20109;-76
2021/09/05 14:08:08;;;;;;;3.75;3.45;;;;;;;27.27;35.49;96586.56;5230988;56;20228;-77
2021/09/05 14:13:10;;;;;;;3.03;2.83;;;;;;;27.34;34.23;96594.31;5232258;56;20675;-78
2021/09/05 14:18:13;;;;;;;4.13;3.40;;;;;;;27.12;33.39;96590.13;5231038;56;20118;-77
2021/09/05 14:23:16;;;;;;;17.70;14.77;;;;;;;27.38;34.88;96589.03;5231241;56;20118;-80
2021/09/05 14:28:22;;;;;;;5.63;4.05;;;;;;;26.38;36.02;96589.44;5228200;56;20184;-77
2021/09/05 14:54:46;;;;;;;4.55;3.80;;;;;;;26.67;36.66;96588.00;5228210;56;20230;-76
2021/09/05 14:59:52;;;;;;;3.63;3.33;;;;;;;26.64;37.47;96571.38;5223660;56;20135;-77
2021/09/05 15:05:26;;;;;;;36.05;23.05;;;;;;;25.99;37.59;96582.06;5225454;56;20127;-76
2021/09/05 15:15:46;;;;;;;6.25;5.65;;;;;;;25.59;38.34;96576.03;5223898;56;20670;-72
2021/09/05 15:20:49;;;;;;;6.40;4.20;;;;;;;25.62;37.85;96577.72;5224563;56;20162;-72
2021/09/05 15:25:51;;;;;;;4.72;3.70;;;;;;;25.23;40.28;96571.59;5223302;56;20122;-74
2021/09/05 15:36:35;;;;;;;4.28;3.65;;;;;;;24.90;38.79;96570.38;5224338;56;20219;-73
2021/09/05 15:57:20;;;;;;;3.70;3.40;;;;;;;24.01;41.80;96563.97;5223527;56;20127;-71
2021/09/05 16:02:32;;;;;;;5.88;3.70;;;;;;;23.72;41.16;96561.53;5225507;56;20174;-71
2021/09/05 16:18:17;;;;;;;4.68;3.35;;;;;;;23.26;43.04;96563.69;5222776;56;20126;-71
2021/09/05 16:23:19;;;;;;;3.58;3.28;;;;;;;23.23;43.38;96558.34;5221943;56;20136;-72
2021/09/05 16:28:28;;;;;;;5.13;3.75;;;;;;;23.12;44.39;96550.84;5222318;56;20159;-73
2021/09/05 16:33:43;;;;;;;5.15;3.75;;;;;;;22.86;46.91;96564.94;5223597;56;20131;-72
2021/09/05 16:44:07;;;;;;;4.32;3.58;;;;;;;22.64;47.64;96574.50;5223831;56;20674;-70
2021/09/05 16:49:12;;;;;;;4.07;3.72;;;;;;;22.38;49.97;96576.44;5223534;56;20657;-72
2021/09/05 16:54:14;;;;;;;4.43;3.70;;;;;;;22.25;49.03;96576.38;5222876;56;20579;-70
2021/09/05 16:59:16;;;;;;;5.05;4.32;;;;;;;22.04;49.80;96587.41;5222382;56;20122;-71
2021/09/05 17:04:19;;;;;;;6.95;4.30;;;;;;;21.94;50.95;96591.88;5221930;56;20131;-80
2021/09/05 17:09:21;;;;;;;6.13;4.13;;;;;;;21.54;52.33;96587.25;5223155;56;20131;-77
2021/09/05 17:14:23;;;;;;;4.68;4.15;;;;;;;21.11;52.82;96593.59;5224635;56;20117;-78
2021/09/05 17:19:29;;;;;;;4.20;3.80;;;;;;;20.74;54.59;96587.75;5224088;56;20202;-77
2021/09/05 17:24:31;;;;;;;5.65;4.20;;;;;;;20.51;56.37;96587.19;5225647;56;20191;-78
2021/09/05 17:29:37;;;;;;;4.70;3.92;;;;;;;20.18;58.48;96595.81;5224079;56;20161;-77
2021/09/05 17:34:39;;;;;;;6.03;3.78;;;;;;;19.96;62.15;96607.16;5215140;56;20122;-79
2021/09/05 17:39:42;;;;;;;4.20;3.80;;;;;;;19.67;66.10;96608.56;5220614;56;20157;-76
2021/09/05 17:44:44;;;;;;;9.52;4.55;;;;;;;19.27;68.15;96611.97;5218004;56;20245;-77
2021/09/05 17:49:47;;;;;;;4.53;3.80;;;;;;;18.98;70.18;96604.91;5222540;56;20231;-76
2021/09/05 17:54:49;;;;;;;4.47;3.90;;;;;;;18.74;72.12;96615.09;5215881;56;20127;-77
2021/09/05 17:59:51;;;;;;;6.07;4.45;;;;;;;18.47;73.26;96620.19;5211054;56;20131;-79
2021/09/05 18:04:54;;;;;;;4.30;3.90;;;;;;;18.39;73.80;96627.50;5224234;56;20114;-78
2021/09/05 18:09:56;;;;;;;5.90;3.92;;;;;;;18.23;74.11;96636.63;5221669;56;20232;-76
2021/09/05 18:14:58;;;;;;;5.20;4.70;;;;;;;18.13;73.45;96643.75;5218135;56;20158;-75
2021/09/05 18:20:01;;;;;;;4.88;4.07;;;;;;;17.88;75.16;96650.28;5208076;56;20123;-77
2021/09/05 18:25:05;;;;;;;5.70;4.50;;;;;;;17.62;76.48;96660.81;5228203;56;20109;-77
2021/09/05 18:30:07;;;;;;;4.68;4.10;;;;;;;17.39;77.44;96664.75;5234075;56;20105;-76
2021/09/05 18:35:10;;;;;;;10.48;4.85;;;;;;;17.19;77.97;96669.19;5230128;56;20140;-79
2021/09/05 18:40:13;;;;;;;6.45;4.35;;;;;;;17.15;78.24;96674.25;5232253;56;20127;-77
2021/09/05 18:45:16;;;;;;;5.10;4.22;;;;;;;16.90;78.96;96675.06;5231656;56;20127;-76
2021/09/05 18:50:18;;;;;;;5.03;4.13;;;;;;;16.75;79.73;96673.69;5229090;56;20123;-76
2021/09/05 18:55:21;;;;;;;5.65;4.22;;;;;;;16.64;80.27;96682.72;5231588;56;20118;-77
2021/09/05 19:00:23;;;;;;;6.75;4.80;;;;;;;16.51;80.69;96684.38;5228525;56;20126;-76
2021/09/05 19:05:28;;;;;;;6.55;4.38;;;;;;;16.38;81.80;96688.28;5217234;56;20136;-78
2021/09/05 19:10:30;;;;;;;4.55;3.70;;;;;;;16.08;83.42;96689.72;5227740;56;20140;-77
2021/09/05 19:15:33;;;;;;;5.07;4.50;;;;;;;15.84;83.99;96688.41;5231988;56;20118;-77
2021/09/05 19:20:35;;;;;;;4.80;4.38;;;;;;;15.64;85.45;96698.31;5240081;56;20140;-77
2021/09/05 19:25:38;;;;;;;9.40;4.40;;;;;;;15.55;85.03;96692.09;5242249;56;20211;-79
2021/09/05 19:30:42;;;;;;;6.43;4.30;;;;;;;15.50;86.43;96696.34;5238066;56;20122;-77
2021/09/05 19:35:45;;;;;;;5.82;4.28;;;;;;;15.44;86.53;96698.28;5228529;56;20583;-78
2021/09/05 19:40:47;;;;;;;6.03;4.35;;;;;;;15.53;85.48;96694.59;5229321;56;20179;-76
2021/09/05 19:45:50;;;;;;;4.90;4.43;;;;;;;15.47;86.22;96696.56;5239120;56;20747;-77
2021/09/05 19:50:52;;;;;;;4.80;4.22;;;;;;;15.38;86.24;96702.97;5231595;56;20680;-75
2021/09/05 19:55:55;;;;;;;6.53;4.28;;;;;;;15.33;86.17;96703.69;5235370;56;20813;-75
2021/09/05 20:01:13;;;;;;;5.32;4.20;;;;;;;15.18;87.52;96699.38;5237962;56;20173;-76
2021/09/05 20:06:16;;;;;;;5.57;4.18;;;;;;;15.10;86.48;96707.38;5239914;56;20135;-76
2021/09/05 20:11:18;;;;;;;5.80;4.00;;;;;;;14.93;87.13;96715.44;5238019;56;20484;-76
2021/09/05 20:16:21;;;;;;;6.40;4.50;;;;;;;14.92;86.89;96710.38;5234527;56;20177;-77
2021/09/05 20:21:23;;;;;;;6.15;4.60;;;;;;;14.77;87.29;96715.94;5234044;56;20180;-77
2021/09/05 20:26:26;;;;;;;5.32;4.40;;;;;;;14.67;87.80;96713.75;5235413;56;20187;-78
2021/09/05 20:31:28;;;;;;;5.18;4.32;;;;;;;14.56;88.10;96716.31;5220988;56;20113;-77
2021/09/05 20:36:30;;;;;;;6.72;4.70;;;;;;;14.49;88.22;96720.25;5223657;56;20143;-77
2021/09/05 20:41:33;;;;;;;5.68;4.50;;;;;;;14.46;88.21;96712.88;5226617;56;20133;-79
2021/09/05 20:46:35;;;;;;;6.22;4.28;;;;;;;14.41;88.01;96715.53;5209871;56;20122;-79
2021/09/05 20:51:40;;;;;;;7.10;4.85;;;;;;;14.34;88.25;96725.03;5225809;56;20109;-76
2021/09/05 20:56:43;;;;;;;7.65;4.70;;;;;;;14.61;87.06;96732.34;5227321;56;20135;-79
2021/09/05 21:01:45;;;;;;;6.13;4.55;;;;;;;14.34;88.34;96728.56;5221848;56;20122;-79
2021/09/05 21:06:49;;;;;;;6.82;4.10;;;;;;;14.19;88.28;96730.53;5223567;56;20109;-76
2021/09/05 21:11:51;;;;;;;4.55;3.88;;;;;;;14.08;88.50;96730.31;5229472;56;20113;-76
2021/09/05 21:16:53;;;;;;;4.90;4.40;;;;;;;14.08;88.98;96730.31;5226731;56;20109;-78
2021/09/05 21:21:56;;;;;;;6.70;4.50;;;;;;;14.14;88.60;96722.06;5216028;56;20123;-78
2021/09/05 21:26:59;;;;;;;9.27;4.47;;;;;;;13.90;88.99;96733.25;5227774;56;20127;-79
2021/09/05 21:32:03;;;;;;;5.10;4.45;;;;;;;13.87;88.88;96731.41;5227146;56;20101;-78
2021/09/05 21:37:05;;;;;;;5.57;4.50;;;;;;;13.79;89.03;96741.34;5224463;56;20171;-77
2021/09/05 21:42:08;;;;;;;7.55;5.07;;;;;;;13.88;89.17;96744.06;5238183;56;20127;-78
2021/09/05 21:47:10;;;;;;;6.95;5.13;;;;;;;13.80;89.30;96745.66;5239018;56;20117;-77
2021/09/05 21:52:13;;;;;;;5.57;4.97;;;;;;;13.73;89.26;96743.22;5237651;56;20210;-77
2021/09/05 21:57:15;;;;;;;6.15;4.60;;;;;;;13.78;88.84;96739.78;5237985;56;20200;-78
2021/09/05 22:02:18;;;;;;;7.32;4.72;;;;;;;13.50;89.05;96744.00;5231295;56;20118;-76
2021/09/05 22:07:21;;;;;;;5.28;4.78;;;;;;;13.46;89.97;96737.81;5240803;56;20110;-77
2021/09/05 22:12:23;;;;;;;5.35;4.50;;;;;;;13.38;89.75;96744.97;5239499;56;20218;-77
2021/09/05 22:17:26;;;;;;;5.72;4.78;;;;;;;13.33;90.30;96745.63;5238819;56;20717;-77
2021/09/05 22:22:29;;;;;;;6.45;5.43;;;;;;;13.19;90.16;96743.50;5230733;56;20680;-76
2021/09/05 22:27:34;;;;;;;9.40;4.40;;;;;;;13.29;90.61;96748.56;5236312;56;20131;-77
2021/09/05 22:32:40;;;;;;;5.07;4.57;;;;;;;13.27;90.34;96750.28;5235392;56;20109;-79
2021/09/05 22:37:43;;;;;;;6.60;4.85;;;;;;;13.27;90.58;96751.06;5235804;56;20114;-78
2021/09/05 22:42:47;;;;;;;5.72;5.10;;;;;;;13.22;90.38;96748.13;5241628;56;20211;-78
2021/09/05 22:47:50;;;;;;;6.82;5.22;;;;;;;13.06;90.37;96752.06;5240453;56;20123;-79
2021/09/05 22:52:53;;;;;;;6.57;5.35;;;;;;;13.09;90.84;96753.13;5246022;56;20237;-77
2021/09/05 22:57:56;;;;;;;5.75;4.28;;;;;;;12.90;90.79;96746.84;5247633;56;20092;-78
2021/09/05 23:03:01;;;;;;;5.07;4.50;;;;;;;12.85;90.85;96755.78;5245799;56;20131;-76
2021/09/05 23:08:06;;;;;;;8.88;4.95;;;;;;;12.83;91.06;96759.03;5243178;56;20131;-77
2021/09/05 23:13:08;;;;;;;6.20;4.80;;;;;;;12.82;90.88;96754.69;5243367;56;20311;-77
2021/09/05 23:18:12;;;;;;;5.82;4.70;;;;;;;12.71;91.00;96754.44;5244235;56;20131;-78
2021/09/05 23:23:16;;;;;;;6.15;4.80;;;;;;;12.68;90.76;96760.16;5243777;56;20328;-76
2021/09/05 23:28:19;;;;;;;6.00;4.90;;;;;;;12.65;91.11;96755.53;5241394;56;20336;-77
2021/09/05 23:33:23;;;;;;;6.90;4.63;;;;;;;12.79;91.12;96763.97;5242285;56;20101;-77
2021/09/05 23:38:26;;;;;;;5.38;4.60;;;;;;;12.76;91.33;96753.03;5236829;56;20241;-76
2021/09/05 23:43:29;;;;;;;5.00;4.10;;;;;;;12.54;90.97;96764.31;5234103;56;20228;-77
2021/09/05 23:48:34;;;;;;;5.22;4.72;;;;;;;12.48;91.64;96759.88;5235626;56;20127;-75
2021/09/05 23:53:41;;;;;;;8.90;4.63;;;;;;;12.39;91.61;96760.66;5225804;56;20118;-77
2021/09/05 23:58:45;;;;;;;5.95;4.72;;;;;;;12.29;91.42;96756.34;5243189;56;20144;-76
